Time;durP1;ratioP1;P1;durP2;ratioP2;P2;SDS_P1;SDS_P2;PMS_P1;PMS_P2;Temp;Humidity;BMP_temperature;BMP_pressure;BME280_temperature;BME280_humidity;BME280_pressure;Samples;Min_cycle;Max_cycle;Signal;HPM_P1;HPM_P2
2023/01/30 00:00:59;;;;;;;;;;;20.00;63.00;;;;;;1541450;76;1159;-67
2023/01/30 00:03:01;;;;;;;;;;;20.00;63.00;;;;;;1542235;75;749;-66
2023/01/30 00:05:03;;;;;;;;;;;20.00;63.00;;;;;;1540320;76;732;-66
2023/01/30 00:07:05;;;;;;;;;;;20.00;62.90;;;;;;1541459;75;640;-70
2023/01/30 00:09:07;;;;;;;;;;;19.90;63.20;;;;;;1539050;76;1087;-65
2023/01/30 00:11:10;;;;;;;;;;;19.90;63.00;;;;;;1541735;76;672;-67
2023/01/30 00:13:13;;;;;;;;;;;19.90;63.20;;;;;;1542393;76;1940;-65
2023/01/30 00:15:15;;;;;;;;;;;20.00;63.10;;;;;;1541599;76;684;-66
2023/01/30 00:17:17;;;;;;;;;;;19.90;63.30;;;;;;1543239;75;760;-66
2023/01/30 00:19:19;;;;;;;;;;;19.90;63.40;;;;;;1540648;75;1149;-66
2023/01/30 00:21:20;;;;;;;;;;;19.90;63.40;;;;;;1545271;75;732;-66
2023/01/30 00:23:22;;;;;;;;;;;20.00;63.40;;;;;;1542292;75;717;-67
2023/01/30 00:25:25;;;;;;;;;;;19.90;63.50;;;;;;1541752;75;1601;-67
2023/01/30 00:27:27;;;;;;;;;;;19.90;63.60;;;;;;1541168;76;686;-67
2023/01/30 00:29:28;;;;;;;;;;;19.90;63.70;;;;;;1541260;75;1113;-69
2023/01/30 00:31:30;;;;;;;;;;;19.80;64.00;;;;;;1555418;70;223717;-71
2023/01/30 00:33:32;;;;;;;;;;;20.00;63.70;;;;;;1568205;74;1946;-72
2023/01/30 00:35:34;;;;;;;;;;;19.90;63.80;;;;;;1599027;73;741;-72
2023/01/30 00:37:36;;;;;;;;;;;19.90;63.70;;;;;;1577339;73;682;-72
2023/01/30 00:39:38;;;;;;;;;;;20.00;63.50;;;;;;1580507;73;632;-72
2023/01/30 00:47:04;;;;;;;;;;;20.00;63.20;;;;;;1584348;73;1624;-73
2023/01/30 00:48:27;;;;;;;;;;;20.00;63.20;;;;;;1580722;73;978;-73
2023/01/30 00:50:41;;;;;;;;;;;20.00;63.20;;;;;;1598047;73;683;-73
2023/01/30 00:52:33;;;;;;;;;;;20.10;63.10;;;;;;1579775;73;1930;-73
2023/01/30 00:54:35;;;;;;;;;;;20.10;63.10;;;;;;1588202;73;1432;-73
2023/01/30 00:56:36;;;;;;;;;;;20.10;63.00;;;;;;1586437;73;629;-73
2023/01/30 00:58:38;;;;;;;;;;;20.00;62.80;;;;;;1585859;74;632;-73
2023/01/30 01:00:40;;;;;;;;;;;20.10;62.70;;;;;;1582382;74;651;-73
2023/01/30 01:02:42;;;;;;;;;;;20.20;62.60;;;;;;1589524;73;654;-73
2023/01/30 01:04:44;;;;;;;;;;;20.20;62.30;;;;;;1592940;73;1147;-73
2023/01/30 01:06:46;;;;;;;;;;;20.20;62.20;;;;;;1585052;73;684;-73
2023/01/30 01:08:48;;;;;;;;;;;20.30;62.00;;;;;;1587142;73;662;-73
2023/01/30 01:10:50;;;;;;;;;;;20.30;62.10;;;;;;1583320;73;778;-72
2023/01/30 01:12:52;;;;;;;;;;;20.20;62.00;;;;;;1583734;73;1944;-74
2023/01/30 01:14:54;;;;;;;;;;;20.30;62.10;;;;;;1586428;73;1126;-74
2023/01/30 01:16:56;;;;;;;;;;;20.20;62.00;;;;;;1592324;73;684;-73
2023/01/30 01:18:57;;;;;;;;;;;20.20;62.00;;;;;;1588275;73;654;-73
2023/01/30 01:20:59;;;;;;;;;;;20.20;61.90;;;;;;1583379;73;1463;-73
2023/01/30 01:23:01;;;;;;;;;;;20.20;62.10;;;;;;1591951;73;680;-73
2023/01/30 01:25:03;;;;;;;;;;;20.20;62.00;;;;;;1590725;73;1110;-73
2023/01/30 01:27:05;;;;;;;;;;;20.20;61.90;;;;;;1583022;73;674;-73
2023/01/30 01:29:07;;;;;;;;;;;20.10;61.90;;;;;;1594865;74;707;-73
2023/01/30 01:31:10;;;;;;;;;;;20.10;62.20;;;;;;1580812;74;820;-72
2023/01/30 01:33:12;;;;;;;;;;;20.10;61.90;;;;;;1585659;73;1922;-71
2023/01/30 01:35:14;;;;;;;;;;;20.10;61.90;;;;;;1586376;73;1134;-72
2023/01/30 01:37:16;;;;;;;;;;;20.10;62.00;;;;;;1576807;74;645;-71
2023/01/30 01:39:18;;;;;;;;;;;20.10;61.80;;;;;;1592080;73;661;-72
2023/01/30 01:41:20;;;;;;;;;;;20.20;61.80;;;;;;1583309;73;674;-71
2023/01/30 01:43:22;;;;;;;;;;;20.20;61.70;;;;;;1585016;73;1120;-70
2023/01/30 01:45:24;;;;;;;;;;;20.30;61.60;;;;;;1593687;73;665;-72
2023/01/30 01:47:26;;;;;;;;;;;20.40;61.50;;;;;;1598006;73;662;-71
2023/01/30 01:49:29;;;;;;;;;;;20.40;61.20;;;;;;1595674;73;681;-72
2023/01/30 01:51:35;;;;;;;;;;;20.50;61.50;;;;;;1584183;73;922;-74
2023/01/30 01:53:38;;;;;;;;;;;20.40;61.20;;;;;;1583518;73;1927;-71
2023/01/30 01:55:40;;;;;;;;;;;20.50;60.90;;;;;;1590915;74;774;-72
2023/01/30 01:57:44;;;;;;;;;;;20.50;60.60;;;;;;1593511;73;672;-72
2023/01/30 01:59:50;;;;;;;;;;;20.60;60.50;;;;;;1583285;74;955;-72
2023/01/30 02:01:53;;;;;;;;;;;20.60;60.30;;;;;;1585560;73;1037;-72
2023/01/30 02:03:56;;;;;;;;;;;20.60;60.20;;;;;;1584345;73;1295;-73
2023/01/30 02:05:59;;;;;;;;;;;20.70;60.20;;;;;;1585728;73;675;-72
2023/01/30 02:08:11;;;;;;;;;;;20.60;60.10;;;;;;1586596;73;581;-72
2023/01/30 02:10:20;;;;;;;;;;;20.60;60.00;;;;;;1591874;74;677;-72
2023/01/30 02:12:22;;;;;;;;;;;20.60;60.00;;;;;;1583988;73;1926;-72
2023/01/30 02:14:24;;;;;;;;;;;20.60;60.00;;;;;;1591066;73;1099;-73
2023/01/30 02:16:26;;;;;;;;;;;20.60;60.00;;;;;;1586415;73;1327;-73
2023/01/30 02:18:31;;;;;;;;;;;20.60;60.00;;;;;;1586200;73;658;-71
2023/01/30 02:20:34;;;;;;;;;;;20.60;60.00;;;;;;1591130;73;679;-72
2023/01/30 02:22:54;;;;;;;;;;;20.60;60.00;;;;;;1579692;73;630;-72
2023/01/30 02:25:07;;;;;;;;;;;20.60;60.00;;;;;;1580333;74;1053;-72
2023/01/30 02:27:20;;;;;;;;;;;20.50;60.10;;;;;;1587972;73;923;-72
2023/01/30 02:29:40;;;;;;;;;;;20.50;60.30;;;;;;1583347;74;1160;-74
2023/01/30 02:31:49;;;;;;;;;;;20.50;60.40;;;;;;1585796;73;1344;-73
2023/01/30 02:33:53;;;;;;;;;;;20.50;60.40;;;;;;1582524;73;1964;-75
2023/01/30 02:35:59;;;;;;;;;;;20.50;60.40;;;;;;1588296;73;680;-73
2023/01/30 02:38:20;;;;;;;;;;;20.40;60.20;;;;;;1588508;73;695;-73
2023/01/30 02:40:29;;;;;;;;;;;20.60;60.20;;;;;;1585573;73;670;-72
2023/01/30 02:42:38;;;;;;;;;;;20.50;60.20;;;;;;1585252;73;674;-74
2023/01/30 02:44:41;;;;;;;;;;;20.50;60.30;;;;;;1596843;73;1542;-72
2023/01/30 02:46:48;;;;;;;;;;;20.50;60.40;;;;;;1593429;73;658;-73
2023/01/30 02:48:57;;;;;;;;;;;20.50;60.50;;;;;;1583842;73;971;-73
2023/01/30 02:51:00;;;;;;;;;;;20.50;60.60;;;;;;1594488;73;664;-73
2023/01/30 02:53:03;;;;;;;;;;;20.50;60.70;;;;;;1589773;74;1937;-74
2023/01/30 02:55:09;;;;;;;;;;;20.50;60.70;;;;;;1600010;73;1080;-73
2023/01/30 02:57:21;;;;;;;;;;;20.50;60.80;;;;;;1587723;73;704;-73
2023/01/30 02:59:25;;;;;;;;;;;20.40;60.70;;;;;;1589741;73;1469;-72
2023/01/30 03:01:28;;;;;;;;;;;20.50;60.70;;;;;;1588999;73;597;-73
2023/01/30 03:03:32;;;;;;;;;;;20.40;60.80;;;;;;1581107;73;1219;-73
2023/01/30 03:05:44;;;;;;;;;;;20.50;60.90;;;;;;1591110;73;1186;-72
2023/01/30 03:07:50;;;;;;;;;;;20.40;60.80;;;;;;1593804;74;689;-73
2023/01/30 03:09:53;;;;;;;;;;;20.40;60.80;;;;;;1589953;74;734;-73
2023/01/30 03:12:03;;;;;;;;;;;20.40;60.80;;;;;;1586440;73;993;-73
2023/01/30 03:14:10;;;;;;;;;;;20.40;60.80;;;;;;1585277;73;1940;-74
2023/01/30 03:16:13;;;;;;;;;;;20.40;60.80;;;;;;1585136;73;1167;-73
2023/01/30 03:18:16;;;;;;;;;;;20.50;60.70;;;;;;1589011;73;674;-73
2023/01/30 03:20:18;;;;;;;;;;;20.50;60.70;;;;;;1590210;73;673;-73
2023/01/30 03:22:20;;;;;;;;;;;20.40;60.60;;;;;;1583764;73;760;-73
2023/01/30 03:24:22;;;;;;;;;;;20.40;60.60;;;;;;1591974;73;1123;-74
2023/01/30 03:26:25;;;;;;;;;;;20.40;60.60;;;;;;1589229;73;607;-74
2023/01/30 03:28:27;;;;;;;;;;;20.40;60.60;;;;;;1589335;73;1404;-74
2023/01/30 03:30:29;;;;;;;;;;;20.40;60.70;;;;;;1594819;73;622;-74
2023/01/30 03:32:31;;;;;;;;;;;20.40;60.70;;;;;;1592613;73;795;-74
2023/01/30 03:34:33;;;;;;;;;;;20.40;60.70;;;;;;1583887;73;1914;-74
2023/01/30 03:36:35;;;;;;;;;;;20.40;60.60;;;;;;1590216;73;677;-74
2023/01/30 03:38:36;;;;;;;;;;;20.50;60.70;;;;;;1587061;74;687;-74
2023/01/30 03:40:38;;;;;;;;;;;20.40;60.60;;;;;;1585768;73;781;-74
2023/01/30 03:42:40;;;;;;;;;;;20.50;60.60;;;;;;1586113;73;1503;-73
2023/01/30 03:44:42;;;;;;;;;;;20.40;60.60;;;;;;1590865;73;1126;-74
2023/01/30 03:46:44;;;;;;;;;;;20.40;60.70;;;;;;1591144;74;719;-74
2023/01/30 03:48:46;;;;;;;;;;;20.50;60.70;;;;;;1590288;73;689;-74
2023/01/30 03:50:48;;;;;;;;;;;20.50;60.60;;;;;;1591200;73;621;-73
2023/01/30 03:52:50;;;;;;;;;;;20.40;60.70;;;;;;1588919;73;670;-72
2023/01/30 03:54:52;;;;;;;;;;;20.50;60.80;;;;;;1582262;73;1436;-72
2023/01/30 03:56:53;;;;;;;;;;;20.40;60.70;;;;;;1592435;73;714;-72
2023/01/30 03:58:55;;;;;;;;;;;20.40;60.70;;;;;;1593475;74;682;-72
2023/01/30 04:00:57;;;;;;;;;;;20.50;60.80;;;;;;1589952;73;685;-72
2023/01/30 04:02:59;;;;;;;;;;;20.40;60.60;;;;;;1589581;73;674;-73
2023/01/30 04:05:01;;;;;;;;;;;20.40;60.60;;;;;;1593844;73;1107;-72
2023/01/30 04:07:03;;;;;;;;;;;20.50;60.70;;;;;;1594103;73;666;-72
2023/01/30 04:09:05;;;;;;;;;;;20.50;60.80;;;;;;1586354;73;1574;-72
2023/01/30 04:11:06;;;;;;;;;;;20.40;60.70;;;;;;1598485;73;637;-72
2023/01/30 04:13:08;;;;;;;;;;;20.50;60.80;;;;;;1589818;73;1933;-73
2023/01/30 04:15:10;;;;;;;;;;;20.40;60.70;;;;;;1589281;73;1031;-73
2023/01/30 04:17:12;;;;;;;;;;;20.40;60.70;;;;;;1590919;73;693;-74
2023/01/30 04:19:14;;;;;;;;;;;20.40;60.70;;;;;;1588382;73;620;-72
2023/01/30 04:21:16;;;;;;;;;;;20.40;60.70;;;;;;1580016;73;673;-72
2023/01/30 04:23:18;;;;;;;;;;;20.40;60.70;;;;;;1582998;73;1432;-72
2023/01/30 04:25:20;;;;;;;;;;;20.40;60.70;;;;;;1598585;73;686;-72
2023/01/30 04:27:22;;;;;;;;;;;20.40;60.70;;;;;;1579225;73;653;-72
2023/01/30 04:29:23;;;;;;;;;;;20.40;60.70;;;;;;1596798;73;668;-73
2023/01/30 04:31:25;;;;;;;;;;;20.40;60.70;;;;;;1585511;73;663;-72
2023/01/30 04:33:27;;;;;;;;;;;20.40;61.20;;;;;;1586340;73;1927;-71
2023/01/30 04:35:29;;;;;;;;;;;20.30;61.40;;;;;;1593767;73;644;-71
2023/01/30 04:37:31;;;;;;;;;;;20.30;61.60;;;;;;1592212;73;1424;-71
2023/01/30 04:39:33;;;;;;;;;;;20.30;61.40;;;;;;1600026;73;670;-71
2023/01/30 04:41:35;;;;;;;;;;;20.40;61.30;;;;;;1591347;73;634;-71
2023/01/30 04:43:37;;;;;;;;;;;20.30;61.20;;;;;;1598293;73;1112;-71
2023/01/30 04:45:40;;;;;;;;;;;20.30;61.20;;;;;;1596150;74;660;-71
2023/01/30 04:47:42;;;;;;;;;;;20.30;61.00;;;;;;1597905;73;1145;-70
2023/01/30 04:49:44;;;;;;;;;;;20.40;60.90;;;;;;1581601;73;690;-70
2023/01/30 04:51:46;;;;;;;;;;;20.40;60.80;;;;;;1592810;73;1376;-70
2023/01/30 04:53:48;;;;;;;;;;;20.30;60.80;;;;;;1591241;73;1969;-70
2023/01/30 04:55:49;;;;;;;;;;;20.30;60.80;;;;;;1599445;73;673;-70
2023/01/30 04:57:51;;;;;;;;;;;20.30;60.70;;;;;;1588915;74;672;-70
2023/01/30 04:59:53;;;;;;;;;;;20.30;60.70;;;;;;1592191;73;673;-70
2023/01/30 05:01:55;;;;;;;;;;;20.30;60.80;;;;;;1582848;73;691;-70
2023/01/30 05:03:57;;;;;;;;;;;20.20;60.60;;;;;;1586095;73;1049;-69
2023/01/30 05:05:59;;;;;;;;;;;20.20;60.60;;;;;;1585002;73;1542;-70
2023/01/30 05:08:01;;;;;;;;;;;20.30;60.70;;;;;;1581522;73;708;-71
2023/01/30 05:10:03;;;;;;;;;;;20.30;60.70;;;;;;1586481;73;674;-71
2023/01/30 05:12:05;;;;;;;;;;;20.30;60.70;;;;;;1591027;74;659;-71
2023/01/30 05:14:06;;;;;;;;;;;20.20;60.60;;;;;;1593439;73;1948;-72
2023/01/30 05:16:09;;;;;;;;;;;20.20;60.60;;;;;;1590688;73;694;-71
2023/01/30 05:18:11;;;;;;;;;;;20.20;60.70;;;;;;1596150;73;865;-72
2023/01/30 05:20:13;;;;;;;;;;;20.20;60.60;;;;;;1593685;73;1467;-71
2023/01/30 05:22:14;;;;;;;;;;;20.30;60.80;;;;;;1577240;73;685;-72
2023/01/30 05:24:16;;;;;;;;;;;20.30;60.80;;;;;;1605265;73;1133;-71
2023/01/30 05:26:18;;;;;;;;;;;20.20;60.70;;;;;;1588119;73;669;-72
2023/01/30 05:28:20;;;;;;;;;;;20.30;60.80;;;;;;1582078;73;616;-71
2023/01/30 05:30:22;;;;;;;;;;;20.20;60.60;;;;;;1584644;73;666;-71
2023/01/30 05:32:26;;;;;;;;;;;20.10;60.90;;;;;;1596940;73;697;-71
2023/01/30 05:34:28;;;;;;;;;;;20.10;61.00;;;;;;1585466;73;1929;-72
2023/01/30 05:36:29;;;;;;;;;;;20.10;61.00;;;;;;1575298;73;626;-73
2023/01/30 05:38:31;;;;;;;;;;;20.00;60.80;;;;;;1593233;73;656;-73
2023/01/30 05:40:33;;;;;;;;;;;19.90;60.90;;;;;;1582399;73;720;-74
2023/01/30 05:42:35;;;;;;;;;;;20.00;61.30;;;;;;1593688;73;578;-73
2023/01/30 05:44:37;;;;;;;;;;;20.00;61.30;;;;;;1581815;73;1130;-73
2023/01/30 05:46:39;;;;;;;;;;;20.20;61.00;;;;;;1590875;73;631;-72
2023/01/30 05:48:41;;;;;;;;;;;20.20;60.80;;;;;;1584830;73;1531;-72
2023/01/30 05:50:43;;;;;;;;;;;20.30;60.80;;;;;;1591730;73;686;-72
2023/01/30 05:52:44;;;;;;;;;;;20.40;60.50;;;;;;1589733;73;644;-72
2023/01/30 05:54:46;;;;;;;;;;;20.40;60.40;;;;;;1595320;73;1950;-72
2023/01/30 05:56:50;;;;;;;;;;;20.40;60.30;;;;;;1595535;73;654;-72
2023/01/30 05:58:55;;;;;;;;;;;20.30;60.40;;;;;;1589529;73;937;-72
2023/01/30 06:01:01;;;;;;;;;;;20.30;60.50;;;;;;1594207;73;729;-73
2023/01/30 06:03:02;;;;;;;;;;;20.20;60.50;;;;;;1592816;73;1439;-73
2023/01/30 06:05:04;;;;;;;;;;;20.30;60.60;;;;;;1590076;73;1169;-72
2023/01/30 06:07:06;;;;;;;;;;;20.30;60.50;;;;;;1587080;74;671;-71
2023/01/30 06:09:09;;;;;;;;;;;20.40;60.30;;;;;;1592159;73;722;-72
2023/01/30 06:11:12;;;;;;;;;;;20.40;60.20;;;;;;1587723;73;647;-73
2023/01/30 06:13:14;;;;;;;;;;;20.40;60.10;;;;;;1586540;73;708;-72
2023/01/30 06:15:15;;;;;;;;;;;20.30;60.10;;;;;;1593218;73;1952;-72
2023/01/30 06:17:17;;;;;;;;;;;20.30;60.10;;;;;;1594064;73;1627;-73
2023/01/30 06:19:19;;;;;;;;;;;20.40;60.10;;;;;;1592976;73;682;-74
2023/01/30 06:21:21;;;;;;;;;;;20.40;59.70;;;;;;1583909;73;642;-73
2023/01/30 06:23:23;;;;;;;;;;;20.40;60.00;;;;;;1600753;73;1103;-73
2023/01/30 06:25:26;;;;;;;;;;;20.50;59.90;;;;;;1587938;73;676;-73
2023/01/30 06:27:28;;;;;;;;;;;20.50;59.80;;;;;;1587847;73;662;-72
2023/01/30 06:29:30;;;;;;;;;;;20.60;59.70;;;;;;1589896;73;661;-72
2023/01/30 06:31:31;;;;;;;;;;;20.60;59.60;;;;;;1545212;70;227306;-60
2023/01/30 06:33:33;;;;;;;;;;;20.60;59.50;;;;;;1481588;77;655;-61
2023/01/30 06:35:37;;;;;;;;;;;20.60;59.40;;;;;;1480128;77;1936;-64
2023/01/30 06:37:39;;;;;;;;;;;20.60;59.40;;;;;;1490806;77;1064;-62
2023/01/30 06:39:41;;;;;;;;;;;20.70;59.40;;;;;;1488488;77;1189;-61
2023/01/30 06:41:43;;;;;;;;;;;20.60;59.20;;;;;;1503837;77;703;-61
2023/01/30 06:43:44;;;;;;;;;;;20.60;59.20;;;;;;1504406;77;1556;-61
2023/01/30 06:45:46;;;;;;;;;;;20.60;59.10;;;;;;1502454;77;756;-61
2023/01/30 06:47:49;;;;;;;;;;;20.60;59.10;;;;;;1502647;77;668;-61
2023/01/30 06:49:51;;;;;;;;;;;20.50;59.20;;;;;;1514969;77;1157;-61
2023/01/30 06:51:53;;;;;;;;;;;20.50;59.40;;;;;;1507713;77;744;-61
2023/01/30 06:53:54;;;;;;;;;;;20.50;59.60;;;;;;1494038;77;673;-62
2023/01/30 06:55:57;;;;;;;;;;;20.50;59.60;;;;;;1509979;77;1945;-61
2023/01/30 06:58:05;;;;;;;;;;;20.50;59.50;;;;;;1511030;77;1554;-61
2023/01/30 07:00:08;;;;;;;;;;;20.50;59.30;;;;;;1498926;77;1119;-61
2023/01/30 07:02:11;;;;;;;;;;;20.60;59.00;;;;;;1500193;77;701;-60
2023/01/30 07:04:13;;;;;;;;;;;20.60;58.80;;;;;;1498744;77;790;-58
2023/01/30 07:06:15;;;;;;;;;;;20.60;58.60;;;;;;1504179;77;708;-59
2023/01/30 07:08:17;;;;;;;;;;;20.60;58.50;;;;;;1501501;77;716;-59
2023/01/30 07:10:19;;;;;;;;;;;20.60;58.40;;;;;;1497618;77;1113;-60
2023/01/30 07:12:21;;;;;;;;;;;20.70;58.50;;;;;;1502000;77;1380;-59
2023/01/30 07:14:23;;;;;;;;;;;20.60;58.30;;;;;;1500624;77;1934;-59
2023/01/30 07:16:28;;;;;;;;;;;20.60;58.20;;;;;;1497769;77;692;-59
2023/01/30 07:18:28;;;;;;;;;;;20.60;58.20;;;;;;1502136;77;1686;-58
2023/01/30 07:20:30;;;;;;;;;;;20.60;58.10;;;;;;1489102;77;1169;-59
2023/01/30 07:22:32;;;;;;;;;;;20.50;57.50;;;;;;1501306;77;690;-61
2023/01/30 07:24:34;;;;;;;;;;;20.50;58.10;;;;;;1502357;77;752;-61
2023/01/30 07:26:36;;;;;;;;;;;20.50;58.10;;;;;;1502063;77;1570;-61
2023/01/30 07:28:37;;;;;;;;;;;20.60;58.10;;;;;;1503377;77;663;-60
2023/01/30 07:30:39;;;;;;;;;;;20.50;58.00;;;;;;1499869;77;1128;-61
2023/01/30 07:32:41;;;;;;;;;;;20.50;57.50;;;;;;1511555;77;815;-61
2023/01/30 07:34:43;;;;;;;;;;;20.50;57.40;;;;;;1472521;79;1939;-61
2023/01/30 07:36:45;;;;;;;;;;;20.60;57.40;;;;;;1510688;77;671;-60
2023/01/30 07:38:50;;;;;;;;;;;20.50;57.40;;;;;;1509413;77;673;-61
2023/01/30 07:40:52;;;;;;;;;;;20.50;57.40;;;;;;1503983;77;1391;-60
2023/01/30 07:43:01;;;;;;;;;;;20.50;57.40;;;;;;1504264;77;753;-60
2023/01/30 07:45:02;;;;;;;;;;;20.50;57.30;;;;;;1503788;77;675;-61
2023/01/30 07:47:04;;;;;;;;;;;20.50;57.40;;;;;;1508120;77;805;-61
2023/01/30 07:49:07;;;;;;;;;;;20.50;57.30;;;;;;1518569;77;635;-60
2023/01/30 07:51:08;;;;;;;;;;;20.50;57.30;;;;;;1475088;79;1126;-61
2023/01/30 07:53:11;;;;;;;;;;;20.50;57.30;;;;;;1506708;77;644;-60
2023/01/30 07:55:13;;;;;;;;;;;20.50;57.30;;;;;;1475367;79;1943;-61
2023/01/30 07:57:15;;;;;;;;;;;20.50;57.30;;;;;;1474913;79;632;-62
2023/01/30 07:59:17;;;;;;;;;;;20.50;57.30;;;;;;1504688;77;1146;-62
2023/01/30 08:01:19;;;;;;;;;;;20.40;57.20;;;;;;1475076;79;724;-61
2023/01/30 08:03:21;;;;;;;;;;;20.40;57.90;;;;;;1475246;79;720;-59
2023/01/30 08:05:22;;;;;;;;;;;20.40;58.30;;;;;;1507626;77;763;-61
2023/01/30 08:07:24;;;;;;;;;;;20.40;58.90;;;;;;1504402;77;706;-61
2023/01/30 08:09:26;;;;;;;;;;;20.30;59.20;;;;;;1512943;77;1578;-60
2023/01/30 08:11:28;;;;;;;;;;;20.30;59.40;;;;;;1495424;78;647;-61
2023/01/30 08:13:30;;;;;;;;;;;20.30;59.60;;;;;;1494964;77;830;-60
2023/01/30 08:15:32;;;;;;;;;;;20.40;59.70;;;;;;1497168;78;1942;-60
2023/01/30 08:17:34;;;;;;;;;;;20.30;60.00;;;;;;1493526;77;781;-61
2023/01/30 08:19:36;;;;;;;;;;;20.30;60.00;;;;;;1498320;78;1094;-60
2023/01/30 08:21:37;;;;;;;;;;;20.30;60.00;;;;;;1499742;77;703;-59
2023/01/30 08:23:39;;;;;;;;;;;20.30;60.00;;;;;;1498303;78;1452;-62
2023/01/30 08:25:41;;;;;;;;;;;20.30;60.10;;;;;;1497801;77;673;-62
2023/01/30 08:27:43;;;;;;;;;;;20.30;60.10;;;;;;1495177;77;734;-64
2023/01/30 08:29:45;;;;;;;;;;;20.30;60.20;;;;;;1498298;78;1140;-66
2023/01/30 08:31:47;;;;;;;;;;;20.30;60.20;;;;;;1494524;77;735;-62
2023/01/30 08:33:49;;;;;;;;;;;20.30;60.30;;;;;;1500423;77;788;-62
2023/01/30 08:35:50;;;;;;;;;;;20.30;60.20;;;;;;1500006;77;1945;-62
2023/01/30 08:37:52;;;;;;;;;;;20.30;60.20;;;;;;1497133;77;1600;-64
2023/01/30 08:39:54;;;;;;;;;;;20.30;60.20;;;;;;1498589;77;1128;-63
2023/01/30 08:41:56;;;;;;;;;;;20.30;60.50;;;;;;1500067;77;634;-62
2023/01/30 08:43:58;;;;;;;;;;;20.30;60.30;;;;;;1498568;77;711;-63
2023/01/30 08:46:00;;;;;;;;;;;20.30;60.20;;;;;;1500657;77;764;-63
2023/01/30 08:48:03;;;;;;;;;;;20.40;60.30;;;;;;1496057;78;824;-63
2023/01/30 08:50:05;;;;;;;;;;;20.40;60.60;;;;;;1496582;77;1156;-63
2023/01/30 08:52:07;;;;;;;;;;;20.40;60.70;;;;;;1494580;77;1518;-65
2023/01/30 08:54:09;;;;;;;;;;;20.40;60.70;;;;;;1491132;77;711;-67
2023/01/30 08:56:11;;;;;;;;;;;20.40;60.80;;;;;;1498842;77;1952;-65
2023/01/30 08:58:12;;;;;;;;;;;20.40;60.70;;;;;;1496546;77;749;-63
2023/01/30 09:00:15;;;;;;;;;;;20.40;60.70;;;;;;1498238;77;1081;-63
2023/01/30 09:02:16;;;;;;;;;;;20.40;60.60;;;;;;1501115;77;888;-63
2023/01/30 09:04:18;;;;;;;;;;;20.50;60.10;;;;;;1500733;77;1529;-63
2023/01/30 09:06:20;;;;;;;;;;;20.60;59.50;;;;;;1499554;77;913;-63
2023/01/30 09:08:22;;;;;;;;;;;20.60;59.40;;;;;;1496309;77;713;-64
2023/01/30 09:10:24;;;;;;;;;;;20.60;59.60;;;;;;1496748;77;1157;-63
2023/01/30 09:12:26;;;;;;;;;;;20.40;59.50;;;;;;1500311;77;793;-62
2023/01/30 09:14:28;;;;;;;;;;;20.50;59.70;;;;;;1495340;77;767;-63
2023/01/30 09:16:30;;;;;;;;;;;20.40;59.60;;;;;;1500312;77;1914;-63
2023/01/30 09:18:32;;;;;;;;;;;20.50;59.70;;;;;;1492740;77;1479;-63
2023/01/30 09:20:34;;;;;;;;;;;20.50;59.70;;;;;;1492200;77;1124;-64
2023/01/30 09:22:36;;;;;;;;;;;20.50;59.60;;;;;;1484311;77;811;-63
2023/01/30 09:24:38;;;;;;;;;;;20.50;59.70;;;;;;1485144;78;897;-64
2023/01/30 09:26:43;;;;;;;;;;;20.50;59.70;;;;;;1493461;77;763;-63
2023/01/30 09:28:43;;;;;;;;;;;20.50;59.70;;;;;;1488429;77;1682;-64
2023/01/30 09:30:45;;;;;;;;;;;20.60;59.70;;;;;;1499426;77;1134;-63
2023/01/30 09:32:47;;;;;;;;;;;20.60;59.70;;;;;;1498054;77;1569;-64
2023/01/30 09:34:49;;;;;;;;;;;20.60;59.70;;;;;;1498531;77;633;-64
2023/01/30 09:36:51;;;;;;;;;;;20.60;59.70;;;;;;1505264;78;1949;-63
2023/01/30 09:38:53;;;;;;;;;;;20.60;59.70;;;;;;1502123;77;757;-63
2023/01/30 09:41:00;;;;;;;;;;;20.60;59.60;;;;;;1504443;77;1170;-63
2023/01/30 09:43:10;;;;;;;;;;;20.70;59.60;;;;;;1499815;77;817;-64
2023/01/30 09:45:19;;;;;;;;;;;20.70;59.60;;;;;;1501298;77;721;-63
2023/01/30 09:47:23;;;;;;;;;;;20.70;59.50;;;;;;1501084;77;1760;-63
2023/01/30 09:49:26;;;;;;;;;;;20.70;59.50;;;;;;1488950;77;1560;-63
2023/01/30 09:51:36;;;;;;;;;;;20.70;59.40;;;;;;1503699;77;2011;-63
2023/01/30 09:53:39;;;;;;;;;;;20.70;59.30;;;;;;1501752;77;712;-64
2023/01/30 09:55:41;;;;;;;;;;;20.70;59.20;;;;;;1493475;77;1941;-63
2023/01/30 09:57:43;;;;;;;;;;;20.70;59.20;;;;;;1502060;77;731;-63
2023/01/30 09:59:49;;;;;;;;;;;20.70;59.10;;;;;;1504326;78;1164;-63
2023/01/30 10:01:53;;;;;;;;;;;20.70;59.00;;;;;;1503959;77;1551;-64
2023/01/30 10:03:56;;;;;;;;;;;20.70;59.00;;;;;;1508569;77;848;-63
2023/01/30 10:06:01;;;;;;;;;;;20.70;59.00;;;;;;1507435;77;1970;-63
2023/01/30 10:08:07;;;;;;;;;;;20.70;58.90;;;;;;1505085;78;894;-63
2023/01/30 10:10:14;;;;;;;;;;;20.80;58.90;;;;;;1507697;77;1163;-63
2023/01/30 10:12:17;;;;;;;;;;;20.80;58.90;;;;;;1503674;77;1063;-62
2023/01/30 10:14:21;;;;;;;;;;;20.80;58.70;;;;;;1502091;78;728;-63
2023/01/30 10:16:24;;;;;;;;;;;20.70;58.70;;;;;;1505334;77;1937;-63
2023/01/30 10:18:37;;;;;;;;;;;20.70;58.60;;;;;;1503105;77;909;-63
2023/01/30 10:20:49;;;;;;;;;;;20.80;58.60;;;;;;1505490;77;1881;-63
2023/01/30 10:23:02;;;;;;;;;;;20.70;58.60;;;;;;1500706;77;745;-63
2023/01/30 10:25:05;;;;;;;;;;;20.70;58.60;;;;;;1505855;78;1178;-63
2023/01/30 10:27:11;;;;;;;;;;;20.70;58.60;;;;;;1502939;78;1874;-63
2023/01/30 10:29:24;;;;;;;;;;;20.80;58.60;;;;;;1501814;77;1545;-63
2023/01/30 10:31:27;;;;;;;;;;;20.80;58.60;;;;;;1503950;77;706;-63
2023/01/30 10:33:33;;;;;;;;;;;20.70;58.60;;;;;;1500163;77;1845;-65
2023/01/30 10:35:36;;;;;;;;;;;20.80;58.60;;;;;;1505007;77;1935;-63
2023/01/30 10:37:40;;;;;;;;;;;20.80;58.50;;;;;;1507966;77;741;-64
2023/01/30 10:39:45;;;;;;;;;;;20.80;58.60;;;;;;1502550;77;2048;-63
2023/01/30 10:41:55;;;;;;;;;;;20.80;58.40;;;;;;1500218;78;759;-64
2023/01/30 10:43:58;;;;;;;;;;;20.80;58.30;;;;;;1504121;77;1701;-64
2023/01/30 10:46:02;;;;;;;;;;;20.90;58.40;;;;;;1504559;77;759;-64
2023/01/30 10:48:09;;;;;;;;;;;20.90;58.30;;;;;;1492747;77;1852;-65
2023/01/30 10:50:15;;;;;;;;;;;20.90;58.20;;;;;;1502785;77;1860;-64
2023/01/30 10:52:26;;;;;;;;;;;20.90;58.20;;;;;;1501226;77;1784;-65
2023/01/30 10:54:41;;;;;;;;;;;21.00;58.20;;;;;;1503518;77;1037;-64
2023/01/30 10:56:48;;;;;;;;;;;21.00;57.80;;;;;;1504081;77;1949;-64
2023/01/30 10:58:51;;;;;;;;;;;21.00;57.70;;;;;;1502144;77;598;-64
2023/01/30 11:00:55;;;;;;;;;;;21.00;57.60;;;;;;1499447;77;1108;-67
2023/01/30 11:02:59;;;;;;;;;;;21.00;57.60;;;;;;1508613;77;728;-65
2023/01/30 11:05:02;;;;;;;;;;;21.00;57.60;;;;;;1512573;77;806;-65
2023/01/30 11:07:05;;;;;;;;;;;21.00;57.50;;;;;;1512496;77;1989;-64
2023/01/30 11:09:08;;;;;;;;;;;21.00;57.50;;;;;;1498319;78;688;-65
2023/01/30 11:11:27;;;;;;;;;;;21.00;57.50;;;;;;1493773;77;1532;-64
2023/01/30 11:13:30;;;;;;;;;;;21.00;57.30;;;;;;1503385;77;793;-65
2023/01/30 11:15:41;;;;;;;;;;;21.00;57.30;;;;;;1508890;78;1925;-65
2023/01/30 11:17:44;;;;;;;;;;;21.00;57.20;;;;;;1501367;77;762;-64
2023/01/30 11:19:46;;;;;;;;;;;21.00;57.10;;;;;;1505121;78;1113;-64
2023/01/30 11:21:50;;;;;;;;;;;21.00;57.10;;;;;;1508072;77;979;-64
2023/01/30 11:23:53;;;;;;;;;;;21.00;57.00;;;;;;1502405;78;1782;-64
2023/01/30 11:25:55;;;;;;;;;;;21.00;57.10;;;;;;1501360;77;1571;-65
2023/01/30 11:28:01;;;;;;;;;;;21.00;57.00;;;;;;1505230;77;847;-64
2023/01/30 11:30:08;;;;;;;;;;;21.00;57.00;;;;;;1506387;78;1187;-65
2023/01/30 11:32:14;;;;;;;;;;;21.00;56.90;;;;;;1502116;77;1776;-64
2023/01/30 11:34:17;;;;;;;;;;;21.00;56.90;;;;;;1504263;77;796;-64
2023/01/30 11:36:25;;;;;;;;;;;21.00;56.90;;;;;;1502986;77;1945;-65
2023/01/30 11:38:34;;;;;;;;;;;21.10;57.00;;;;;;1500912;77;891;-65
2023/01/30 11:40:37;;;;;;;;;;;21.10;56.90;;;;;;1501512;78;1497;-64
2023/01/30 11:42:39;;;;;;;;;;;21.00;56.80;;;;;;1504365;77;686;-64
2023/01/30 11:44:41;;;;;;;;;;;21.10;56.90;;;;;;1481368;78;1144;-64
2023/01/30 11:46:43;;;;;;;;;;;21.00;56.70;;;;;;1504917;77;807;-64
2023/01/30 11:48:53;;;;;;;;;;;21.10;56.70;;;;;;1502994;78;782;-64
2023/01/30 11:50:56;;;;;;;;;;;21.00;56.50;;;;;;1499491;77;1129;-65
2023/01/30 11:52:59;;;;;;;;;;;21.00;56.50;;;;;;1505119;78;1558;-65
2023/01/30 11:55:07;;;;;;;;;;;21.00;56.50;;;;;;1505067;77;806;-64
2023/01/30 11:57:07;;;;;;;;;;;21.00;56.50;;;;;;1500051;77;1918;-64
2023/01/30 11:59:14;;;;;;;;;;;20.90;56.50;;;;;;1499852;77;709;-64
2023/01/30 12:01:16;;;;;;;;;;;21.00;56.50;;;;;;1503334;77;723;-65
2023/01/30 12:03:18;;;;;;;;;;;21.00;56.40;;;;;;1495245;77;712;-65
2023/01/30 12:05:22;;;;;;;;;;;20.90;56.40;;;;;;1488027;77;729;-65
2023/01/30 12:07:25;;;;;;;;;;;20.90;56.40;;;;;;1507275;77;1543;-65
2023/01/30 12:09:34;;;;;;;;;;;20.80;56.30;;;;;;1499792;77;1132;-64
2023/01/30 12:11:44;;;;;;;;;;;20.90;56.50;;;;;;1499464;77;728;-65
2023/01/30 12:13:46;;;;;;;;;;;20.90;56.40;;;;;;1513527;77;816;-64
2023/01/30 12:15:49;;;;;;;;;;;20.90;56.40;;;;;;1499871;78;748;-64
2023/01/30 12:18:09;;;;;;;;;;;20.90;56.50;;;;;;1502773;78;808;-65
2023/01/30 12:20:15;;;;;;;;;;;20.90;56.40;;;;;;1505885;78;1195;-64